createdAt,value
2018-04-07T00:00:30.811Z,5.50
2018-04-07T00:01:30.734Z,5.20
2018-04-07T00:02:30.812Z,5.00
2018-04-07T00:03:30.575Z,5.60
2018-04-07T00:04:30.498Z,5.60
2018-04-07T00:05:30.418Z,5.80
2018-04-07T00:06:30.338Z,6.00
2018-04-07T00:07:30.264Z,5.60
2018-04-07T00:08:30.183Z,5.50
2018-04-07T00:09:30.104Z,5.40
2018-04-07T00:10:30.024Z,5.20
2018-04-07T00:11:29.946Z,5.40
2018-04-07T00:12:29.866Z,5.60
2018-04-07T00:13:29.789Z,5.70
2018-04-07T00:14:29.710Z,5.50
2018-04-07T00:15:29.631Z,5.70
2018-04-07T00:16:29.557Z,5.30
2018-04-07T00:17:29.474Z,5.90
2018-04-07T00:18:29.393Z,4.70
2018-04-07T00:19:29.316Z,5.50
2018-04-07T00:20:29.237Z,5.90
2018-04-07T00:21:29.158Z,5.30
2018-04-07T00:22:29.079Z,5.70
2018-04-07T00:23:29.001Z,5.70
2018-04-07T00:24:28.921Z,6.30
2018-04-07T00:25:28.842Z,5.60
2018-04-07T00:26:28.763Z,5.80
2018-04-07T00:27:28.683Z,5.90
2018-04-07T00:28:28.605Z,5.80
2018-04-07T00:29:28.525Z,6.30
2018-04-07T00:30:28.451Z,5.80
2018-04-07T00:31:28.368Z,6.20
2018-04-07T00:32:28.288Z,5.70
2018-04-07T00:33:28.209Z,5.60
2018-04-07T00:34:28.129Z,6.00
2018-04-07T00:35:28.051Z,5.90
2018-04-07T00:36:27.972Z,5.30
2018-04-07T00:37:27.893Z,6.20
2018-04-07T00:38:27.816Z,5.50
2018-04-07T00:39:27.734Z,5.30
2018-04-07T00:40:27.654Z,5.40
2018-04-07T00:41:27.575Z,6.10
2018-04-07T00:42:27.495Z,5.40
2018-04-07T00:43:27.418Z,5.90
2018-04-07T00:44:27.336Z,5.80
2018-04-07T00:45:27.257Z,6.00
2018-04-07T00:46:27.180Z,5.70
2018-04-07T00:47:27.096Z,5.70
2018-04-07T00:48:27.039Z,5.60
2018-04-07T00:49:26.939Z,5.60
2018-04-07T00:50:26.859Z,5.70
2018-04-07T00:51:26.780Z,5.20
2018-04-07T00:52:26.701Z,5.10
2018-04-07T00:53:26.620Z,5.80
2018-04-07T00:54:26.539Z,5.40
2018-04-07T00:55:26.461Z,5.90
2018-04-07T00:56:26.381Z,5.90
2018-04-07T00:57:26.300Z,5.80
2018-04-07T00:58:26.219Z,6.10
2018-04-07T00:59:26.140Z,5.90
2018-04-07T01:00:26.062Z,5.90
2018-04-07T01:01:25.982Z,6.20
2018-04-07T01:02:25.901Z,6.10
2018-04-07T01:03:25.820Z,5.90
2018-04-07T01:04:25.743Z,6.10
2018-04-07T01:05:25.661Z,6.10
2018-04-07T01:06:25.581Z,5.80
2018-04-07T01:07:25.502Z,5.80
2018-04-07T01:08:25.421Z,6.20
2018-04-07T01:09:25.343Z,6.00
2018-04-07T01:10:25.260Z,5.80
2018-04-07T01:11:25.182Z,5.90
2018-04-07T01:12:25.102Z,5.60
2018-04-07T01:13:25.023Z,5.90
2018-04-07T01:14:24.942Z,5.90
2018-04-07T01:15:24.862Z,6.10
2018-04-07T01:16:24.783Z,5.80
2018-04-07T01:17:24.701Z,6.00
2018-04-07T01:18:24.622Z,5.90
2018-04-07T01:19:24.542Z,6.00
2018-04-07T01:20:24.465Z,5.60
2018-04-07T01:21:24.383Z,5.40
2018-04-07T01:22:24.302Z,5.70
2018-04-07T01:23:24.221Z,5.40
2018-04-07T01:24:24.141Z,6.30
2018-04-07T01:25:24.061Z,5.90
2018-04-07T01:26:23.982Z,6.00
2018-04-07T01:27:23.900Z,5.50
2018-04-07T01:28:23.821Z,5.80
2018-04-07T01:29:23.741Z,5.90
2018-04-07T01:30:23.665Z,6.10
2018-04-07T01:31:23.581Z,5.90
2018-04-07T01:32:23.500Z,6.40
2018-04-07T01:33:23.419Z,6.20
2018-04-07T01:34:23.339Z,5.80
2018-04-07T01:35:23.259Z,5.20
2018-04-07T01:36:23.179Z,6.50
2018-04-07T01:37:23.099Z,5.70
2018-04-07T01:38:23.019Z,5.50
2018-04-07T01:39:22.938Z,6.00
2018-04-07T01:40:22.863Z,5.70
2018-04-07T01:41:22.780Z,5.80
2018-04-07T01:42:22.697Z,5.20
2018-04-07T01:43:22.658Z,5.50
2018-04-07T01:44:22.538Z,5.40
2018-04-07T01:45:22.458Z,6.30
2018-04-07T01:46:22.376Z,5.90
2018-04-07T01:47:22.296Z,6.10
2018-04-07T01:48:22.216Z,5.60
2018-04-07T01:49:22.136Z,5.20
2018-04-07T01:50:22.055Z,5.70
2018-04-07T01:51:21.976Z,6.00
2018-04-07T01:52:21.895Z,5.80
2018-04-07T01:53:21.814Z,5.80
2018-04-07T01:54:21.736Z,5.60
2018-04-07T01:55:21.653Z,5.90
2018-04-07T01:56:21.572Z,5.60
2018-04-07T01:57:21.493Z,5.60
2018-04-07T01:58:21.561Z,5.40
2018-04-07T01:59:21.331Z,6.00
2018-04-07T02:00:21.253Z,5.60
2018-04-07T02:01:21.173Z,6.20
2018-04-07T02:02:21.089Z,5.70
2018-04-07T02:03:21.009Z,6.00
2018-04-07T02:04:20.928Z,6.00
2018-04-07T02:05:20.848Z,5.70
2018-04-07T02:06:20.767Z,6.10
2018-04-07T02:07:20.685Z,5.70
2018-04-07T02:08:20.650Z,5.80
2018-04-07T02:09:20.526Z,6.70
2018-04-07T02:10:20.444Z,5.80
2018-04-07T02:11:20.364Z,5.70
2018-04-07T02:12:20.285Z,5.70
2018-04-07T02:13:20.202Z,5.20
2018-04-07T02:14:20.123Z,5.30
2018-04-07T02:15:20.043Z,5.70
2018-04-07T02:16:19.962Z,5.80
2018-04-07T02:17:19.882Z,6.50
2018-04-07T02:18:19.800Z,5.10
2018-04-07T02:19:19.720Z,6.40
2018-04-07T02:20:19.639Z,5.60
2018-04-07T02:21:19.559Z,5.50
2018-04-07T02:22:19.477Z,6.00
2018-04-07T02:23:19.397Z,6.00
2018-04-07T02:24:19.318Z,6.20
2018-04-07T02:25:19.237Z,6.00
2018-04-07T02:26:19.155Z,5.60
2018-04-07T02:27:19.076Z,5.30
2018-04-07T02:28:18.997Z,6.20
2018-04-07T02:29:18.915Z,6.70
2018-04-07T02:30:18.833Z,6.00
2018-04-07T02:31:18.752Z,6.20
2018-04-07T02:32:18.674Z,6.10
2018-04-07T02:33:18.594Z,5.50
2018-04-07T02:34:18.510Z,5.50
2018-04-07T02:35:18.430Z,6.10
2018-04-07T02:36:18.349Z,6.00
2018-04-07T02:37:18.268Z,5.80
2018-04-07T02:38:18.187Z,6.10
2018-04-07T02:39:18.106Z,5.80
2018-04-07T02:40:18.031Z,5.90
2018-04-07T02:41:17.945Z,6.10
2018-04-07T02:42:17.865Z,5.70
2018-04-07T02:43:17.783Z,5.70
2018-04-07T02:44:17.702Z,5.60
2018-04-07T02:45:17.621Z,6.30
2018-04-07T02:46:17.543Z,6.20
2018-04-07T02:47:17.460Z,5.80
2018-04-07T02:48:17.379Z,5.10
2018-04-07T02:49:17.298Z,5.90
2018-04-07T02:50:17.224Z,5.90
2018-04-07T02:51:17.134Z,5.90
2018-04-07T02:52:17.056Z,5.50
2018-04-07T02:53:16.974Z,5.80
2018-04-07T02:54:16.892Z,6.10
2018-04-07T02:55:16.814Z,6.20
2018-04-07T02:56:16.731Z,6.30
2018-04-07T02:57:16.652Z,6.30
2018-04-07T02:58:16.569Z,5.80
2018-04-07T02:59:16.488Z,6.40
2018-04-07T03:00:16.410Z,5.50
2018-04-07T03:01:16.327Z,6.50
2018-04-07T03:02:16.247Z,6.10
2018-04-07T03:03:16.166Z,6.50
2018-04-07T03:04:16.086Z,6.20
2018-04-07T03:05:16.004Z,5.70
2018-04-07T03:06:15.925Z,6.20
2018-04-07T03:07:15.842Z,5.50
2018-04-07T03:08:15.763Z,5.60
2018-04-07T03:09:15.682Z,6.00
2018-04-07T03:10:15.606Z,5.80
2018-04-07T03:11:15.520Z,5.90
2018-04-07T03:12:15.440Z,5.70
2018-04-07T03:13:15.361Z,6.30
2018-04-07T03:14:15.277Z,5.70
2018-04-07T03:15:15.200Z,5.50
2018-04-07T03:16:15.118Z,6.00
2018-04-07T03:17:15.038Z,5.70
2018-04-07T03:18:14.958Z,5.80
2018-04-07T03:19:14.878Z,5.90
2018-04-07T03:20:14.797Z,7.80
2018-04-07T03:21:14.718Z,6.20
2018-04-07T03:22:14.636Z,5.70
2018-04-07T03:23:14.557Z,5.90
2018-04-07T03:24:14.478Z,5.60
2018-04-07T03:25:14.398Z,6.10
2018-04-07T03:26:14.317Z,5.40
2018-04-07T03:27:14.237Z,6.00
2018-04-07T03:28:14.158Z,5.30
2018-04-07T03:29:14.077Z,5.40
2018-04-07T03:30:13.998Z,6.00
2018-04-07T03:31:13.922Z,5.80
2018-04-07T03:32:13.838Z,6.10
2018-04-07T03:33:13.759Z,5.30
2018-04-07T03:34:13.678Z,5.90
2018-04-07T03:35:13.597Z,5.50
2018-04-07T03:36:13.521Z,5.50
2018-04-07T03:37:13.438Z,5.30
2018-04-07T03:38:13.359Z,5.70
2018-04-07T03:39:13.279Z,5.70
2018-04-07T03:40:13.199Z,6.10
2018-04-07T03:41:13.119Z,6.10
2018-04-07T03:42:13.038Z,5.80
2018-04-07T03:43:12.959Z,5.40
2018-04-07T03:44:12.880Z,5.60
2018-04-07T03:45:12.801Z,5.90
2018-04-07T03:46:12.720Z,5.70
2018-04-07T03:47:12.640Z,5.70
2018-04-07T03:48:12.560Z,5.80
2018-04-07T03:49:12.481Z,5.60
2018-04-07T03:50:12.399Z,5.70
2018-04-07T03:51:12.320Z,6.30
2018-04-07T03:52:12.240Z,6.00
2018-04-07T03:53:12.161Z,5.70
2018-04-07T03:54:12.079Z,5.70
2018-04-07T03:55:12.000Z,5.80
2018-04-07T03:56:11.922Z,5.80
2018-04-07T03:57:11.840Z,5.40
2018-04-07T03:58:11.759Z,5.80
2018-04-07T03:59:11.681Z,5.70
2018-04-07T04:00:11.600Z,5.70
2018-04-07T04:01:11.521Z,5.70
2018-04-07T04:02:11.439Z,5.60
2018-04-07T04:03:11.360Z,6.20
2018-04-07T04:04:11.280Z,5.80
2018-04-07T04:05:11.202Z,6.00
2018-04-07T04:06:11.119Z,6.30
2018-04-07T04:07:11.040Z,6.10
2018-04-07T04:08:10.960Z,6.40
2018-04-07T04:09:10.882Z,6.00
2018-04-07T04:10:10.800Z,6.20
2018-04-07T04:11:10.721Z,6.10
2018-04-07T04:12:10.641Z,6.10
2018-04-07T04:13:10.561Z,5.80
2018-04-07T04:14:10.480Z,5.50
2018-04-07T04:15:10.400Z,5.50
2018-04-07T04:16:10.320Z,6.10
2018-04-07T04:17:10.239Z,5.50
2018-04-07T04:18:10.158Z,6.30
2018-04-07T04:19:10.080Z,5.80
2018-04-07T04:20:10.003Z,5.60
2018-04-07T04:21:09.919Z,6.00
2018-04-07T04:22:09.838Z,5.90
2018-04-07T04:23:09.757Z,6.10
2018-04-07T04:24:09.677Z,5.40
2018-04-07T04:25:09.598Z,6.20
2018-04-07T04:26:09.517Z,6.30
2018-04-07T04:27:09.436Z,6.10
2018-04-07T04:28:09.357Z,5.80
2018-04-07T04:29:09.278Z,5.50
2018-04-07T04:30:09.195Z,6.40
2018-04-07T04:31:09.114Z,5.80
2018-04-07T04:32:09.034Z,6.20
2018-04-07T04:33:08.955Z,5.90
2018-04-07T04:34:08.872Z,6.40
2018-04-07T04:35:08.793Z,5.90
2018-04-07T04:36:08.712Z,6.70
2018-04-07T04:37:08.632Z,6.40
2018-04-07T04:38:08.550Z,5.70
2018-04-07T04:39:08.470Z,6.10
2018-04-07T04:40:08.389Z,5.70
2018-04-07T04:41:08.310Z,6.30
2018-04-07T04:42:08.227Z,6.70
2018-04-07T04:43:08.147Z,6.30
2018-04-07T04:44:08.065Z,5.70
2018-04-07T04:45:07.987Z,6.10
2018-04-07T04:46:07.908Z,5.60
2018-04-07T04:47:07.824Z,6.20
2018-04-07T04:48:07.743Z,6.50
2018-04-07T04:49:07.662Z,7.00
2018-04-07T04:50:07.581Z,6.50
2018-04-07T04:51:07.500Z,6.40
2018-04-07T04:52:07.420Z,6.50
2018-04-07T04:53:07.340Z,6.20
2018-04-07T04:54:07.257Z,6.90
2018-04-07T04:55:07.239Z,6.70
2018-04-07T04:56:07.095Z,6.60
2018-04-07T04:57:07.015Z,6.40
2018-04-07T04:58:06.932Z,6.10
2018-04-07T04:59:06.852Z,6.60
2018-04-07T05:00:06.771Z,6.80
2018-04-07T05:01:06.692Z,6.70
2018-04-07T05:02:06.608Z,6.60
2018-04-07T05:03:06.528Z,6.80
2018-04-07T05:04:06.446Z,6.90
2018-04-07T05:05:06.367Z,7.10
2018-04-07T05:06:06.283Z,6.00
2018-04-07T05:07:06.203Z,6.50
2018-04-07T05:08:06.123Z,6.90
2018-04-07T05:09:06.041Z,6.40
2018-04-07T05:10:05.959Z,7.20
2018-04-07T05:11:05.880Z,7.10
2018-04-07T05:12:05.798Z,6.70
2018-04-07T05:13:05.717Z,6.60
2018-04-07T05:14:05.635Z,6.60
2018-04-07T05:15:05.602Z,6.80
2018-04-07T05:16:05.474Z,6.80
2018-04-07T05:17:05.393Z,7.10
2018-04-07T05:18:05.311Z,6.80
2018-04-07T05:19:05.230Z,6.80
2018-04-07T05:20:05.151Z,6.90
2018-04-07T05:21:05.069Z,6.80
2018-04-07T05:22:04.987Z,6.10
2018-04-07T05:23:04.907Z,6.20
2018-04-07T05:24:04.827Z,6.80
2018-04-07T05:25:04.746Z,7.20
2018-04-07T05:26:04.665Z,7.20
2018-04-07T05:27:04.585Z,6.90
2018-04-07T05:28:04.504Z,6.20
2018-04-07T05:29:04.424Z,6.40
2018-04-07T05:30:04.342Z,6.50
2018-04-07T05:31:04.260Z,7.00
2018-04-07T05:32:04.183Z,6.80
2018-04-07T05:33:04.102Z,7.10
2018-04-07T05:34:04.021Z,6.60
2018-04-07T05:35:03.940Z,6.20
2018-04-07T05:36:03.859Z,6.60
2018-04-07T05:37:03.779Z,6.90
2018-04-07T05:38:03.701Z,6.70
2018-04-07T05:39:03.618Z,6.60
2018-04-07T05:40:03.541Z,6.30
2018-04-07T05:41:03.457Z,6.60
2018-04-07T05:42:03.379Z,6.60
2018-04-07T05:43:03.297Z,6.70
2018-04-07T05:44:03.218Z,7.40
2018-04-07T05:45:03.136Z,7.30
2018-04-07T05:46:03.056Z,7.00
2018-04-07T05:47:02.977Z,6.20
2018-04-07T05:48:02.897Z,6.90
2018-04-07T05:49:02.816Z,6.60
2018-04-07T05:50:02.736Z,6.40
2018-04-07T05:51:02.654Z,6.30
2018-04-07T05:52:02.576Z,6.90
2018-04-07T05:53:02.500Z,6.60
2018-04-07T05:54:02.415Z,6.50
2018-04-07T05:55:02.337Z,6.90
2018-04-07T05:56:02.255Z,6.50
2018-04-07T05:57:02.175Z,6.50
2018-04-07T05:58:02.094Z,6.30
2018-04-07T05:59:02.014Z,6.50
2018-04-07T06:00:01.935Z,6.50
2018-04-07T06:01:01.856Z,6.80
2018-04-07T06:02:01.774Z,6.40
2018-04-07T06:03:01.695Z,6.40
2018-04-07T06:04:01.615Z,6.80
2018-04-07T06:05:01.535Z,6.40
2018-04-07T06:06:01.454Z,6.70
2018-04-07T06:07:01.375Z,6.50
2018-04-07T06:08:01.295Z,6.90
2018-04-07T06:09:01.218Z,6.30
2018-04-07T06:10:01.135Z,6.70
2018-04-07T06:11:01.058Z,6.60
2018-04-07T06:12:00.975Z,6.90
2018-04-07T06:13:00.895Z,6.80
2018-04-07T06:14:00.814Z,6.70
2018-04-07T06:15:00.736Z,6.10
2018-04-07T06:16:00.656Z,6.80
2018-04-07T06:17:00.576Z,7.10
2018-04-07T06:18:00.496Z,6.60
2018-04-07T06:19:00.414Z,6.70
2018-04-07T06:20:00.336Z,6.20
2018-04-07T06:21:00.258Z,6.60
2018-04-07T06:22:00.177Z,6.70
2018-04-07T06:23:00.098Z,7.50
2018-04-07T06:24:00.019Z,6.80
2018-04-07T06:24:59.939Z,7.30
2018-04-07T06:25:59.859Z,6.90
2018-04-07T06:26:59.780Z,7.20
2018-04-07T06:27:59.702Z,7.00
2018-04-07T06:28:59.624Z,6.60
2018-04-07T06:29:59.541Z,6.30
2018-04-07T06:30:59.463Z,7.70
2018-04-07T06:31:59.384Z,6.30
2018-04-07T06:32:59.308Z,6.30
2018-04-07T06:33:59.225Z,7.00
2018-04-07T06:34:59.148Z,6.70
2018-04-07T06:35:59.068Z,7.30
2018-04-07T06:36:58.989Z,6.90
2018-04-07T06:37:58.908Z,6.90
2018-04-07T06:38:58.831Z,6.80
2018-04-07T06:39:58.754Z,6.80
2018-04-07T06:40:58.674Z,7.20
2018-04-07T06:41:58.633Z,6.30
2018-04-07T06:42:58.517Z,6.90
2018-04-07T06:43:58.440Z,7.20
2018-04-07T06:44:58.361Z,6.60
2018-04-07T06:45:58.282Z,6.80
2018-04-07T06:46:58.204Z,7.30
2018-04-07T06:47:58.125Z,6.50
2018-04-07T06:48:58.048Z,6.40
2018-04-07T06:49:57.968Z,6.50
2018-04-07T06:50:57.891Z,6.80
2018-04-07T06:51:57.813Z,7.00
2018-04-07T06:52:57.736Z,7.20
2018-04-07T06:53:57.656Z,6.40
2018-04-07T06:54:57.579Z,6.70
2018-04-07T06:55:57.501Z,6.50
2018-04-07T06:56:57.426Z,6.60
2018-04-07T06:57:57.346Z,6.50
2018-04-07T06:58:57.269Z,6.60
2018-04-07T06:59:57.191Z,7.00
2018-04-07T07:00:57.115Z,6.60
2018-04-07T07:01:57.039Z,6.80
2018-04-07T07:02:56.959Z,6.60
2018-04-07T07:03:56.883Z,6.70
2018-04-07T07:04:56.806Z,7.20
2018-04-07T07:05:56.727Z,7.00
2018-04-07T07:06:56.652Z,7.10
2018-04-07T07:07:56.576Z,6.80
2018-04-07T07:08:56.508Z,7.10
2018-04-07T07:09:56.421Z,6.90
2018-04-07T07:10:56.343Z,6.70
2018-04-07T07:11:56.266Z,6.10
2018-04-07T07:12:56.290Z,6.70
2018-04-07T07:13:56.112Z,7.10
2018-04-07T07:14:56.035Z,7.10
2018-04-07T07:15:55.958Z,7.00
2018-04-07T07:16:55.883Z,7.40
2018-04-07T07:17:55.804Z,6.40
2018-04-07T07:18:55.729Z,6.80
2018-04-07T07:19:55.655Z,7.20
2018-04-07T07:20:55.577Z,6.40
2018-04-07T07:21:55.499Z,7.30
2018-04-07T07:22:55.422Z,7.10
2018-04-07T07:23:55.345Z,6.50
2018-04-07T07:24:55.270Z,7.00
2018-04-07T07:25:55.193Z,6.40
2018-04-07T07:26:55.116Z,6.60
2018-04-07T07:27:55.042Z,6.50
2018-04-07T07:28:54.964Z,6.70
2018-04-07T07:29:54.888Z,6.40
2018-04-07T07:30:54.815Z,6.60
2018-04-07T07:31:54.736Z,6.30
2018-04-07T07:32:54.811Z,6.80
2018-04-07T07:33:54.584Z,6.50
2018-04-07T07:34:54.508Z,7.00
2018-04-07T07:35:54.432Z,7.40
2018-04-07T07:36:54.357Z,7.40
2018-04-07T07:37:54.280Z,6.60
2018-04-07T07:38:54.205Z,6.70
2018-04-07T07:39:54.128Z,7.40
2018-04-07T07:40:54.053Z,6.90
2018-04-07T07:41:53.986Z,6.70
2018-04-07T07:42:53.901Z,6.60
2018-04-07T07:43:53.826Z,7.00
2018-04-07T07:44:53.749Z,6.60
2018-04-07T07:45:53.674Z,6.70
2018-04-07T07:46:53.606Z,6.90
2018-04-07T07:47:53.522Z,6.30
2018-04-07T07:48:53.447Z,6.70
2018-04-07T07:49:53.371Z,6.90
2018-04-07T07:50:53.351Z,7.00
2018-04-07T07:51:53.220Z,7.00
2018-04-07T07:52:53.198Z,6.80
2018-04-07T07:53:53.069Z,6.90
2018-04-07T07:54:52.994Z,6.40
2018-04-07T07:55:52.919Z,6.60
2018-04-07T07:56:52.843Z,6.80
2018-04-07T07:57:52.767Z,6.90
2018-04-07T07:58:52.692Z,7.10
2018-04-07T07:59:52.661Z,6.70
2018-04-07T08:00:52.542Z,7.20
2018-04-07T08:01:52.466Z,7.20
2018-04-07T08:02:52.391Z,6.50
2018-04-07T08:03:52.316Z,6.80
2018-04-07T08:04:52.241Z,7.30
2018-04-07T08:05:52.165Z,6.80
2018-04-07T08:06:52.098Z,6.20
2018-04-07T08:07:52.016Z,6.00
2018-04-07T08:08:51.940Z,6.80
2018-04-07T08:09:51.866Z,6.10
2018-04-07T08:10:51.790Z,7.00
2018-04-07T08:11:51.714Z,6.60
2018-04-07T08:12:51.642Z,6.90
2018-04-07T08:13:51.566Z,7.20
2018-04-07T08:14:51.492Z,6.80
2018-04-07T08:15:51.419Z,6.90
2018-04-07T08:16:51.342Z,6.80
2018-04-07T08:17:51.267Z,7.10
2018-04-07T08:18:51.193Z,6.50
2018-04-07T08:19:51.118Z,6.70
2018-04-07T08:20:51.053Z,6.40
2018-04-07T08:21:50.969Z,6.50
2018-04-07T08:22:50.895Z,6.90
2018-04-07T08:23:50.822Z,6.30
2018-04-07T08:24:50.747Z,6.30
2018-04-07T08:25:50.672Z,6.70
2018-04-07T08:26:50.597Z,6.20
2018-04-07T08:27:50.524Z,6.20
2018-04-07T08:28:50.451Z,7.00
2018-04-07T08:29:50.376Z,5.90
2018-04-07T08:30:50.302Z,7.00
2018-04-07T08:31:50.228Z,6.60
2018-04-07T08:32:50.154Z,6.40
2018-04-07T08:33:50.079Z,6.70
2018-04-07T08:34:50.007Z,6.60
2018-04-07T08:35:49.932Z,6.40
2018-04-07T08:36:49.863Z,6.10
2018-04-07T08:37:49.785Z,6.50
2018-04-07T08:38:49.710Z,6.50
2018-04-07T08:39:49.635Z,6.80
2018-04-07T08:40:49.563Z,6.20
2018-04-07T08:41:49.488Z,7.20
2018-04-07T08:42:49.414Z,6.60
2018-04-07T08:43:49.346Z,6.70
2018-04-07T08:44:49.269Z,6.40
2018-04-07T08:45:49.193Z,6.50
2018-04-07T08:46:49.120Z,6.80
2018-04-07T08:47:49.047Z,6.40
2018-04-07T08:48:48.999Z,6.00
2018-04-07T08:49:48.899Z,6.10
2018-04-07T08:50:48.826Z,6.80
2018-04-07T08:51:48.754Z,6.80
2018-04-07T08:52:48.680Z,6.30
2018-04-07T08:53:48.605Z,6.30
2018-04-07T08:54:48.533Z,6.40
2018-04-07T08:55:48.459Z,6.50
2018-04-07T08:56:48.388Z,6.40
2018-04-07T08:57:48.320Z,6.70
2018-04-07T08:58:48.272Z,6.40
2018-04-07T08:59:48.168Z,6.00
2018-04-07T09:00:48.096Z,6.40
2018-04-07T09:01:48.021Z,6.50
2018-04-07T09:02:47.952Z,6.30
2018-04-07T09:03:47.876Z,6.80
2018-04-07T09:04:47.803Z,6.40
2018-04-07T09:05:47.727Z,6.60
2018-04-07T09:06:47.655Z,6.20
2018-04-07T09:07:47.583Z,6.70
2018-04-07T09:08:47.511Z,6.50
2018-04-07T09:09:47.437Z,6.50
2018-04-07T09:10:47.364Z,6.20
2018-04-07T09:11:47.291Z,6.40
2018-04-07T09:12:47.219Z,6.00
2018-04-07T09:13:47.146Z,6.50
2018-04-07T09:14:47.073Z,6.30
2018-04-07T09:15:47.001Z,5.70
2018-04-07T09:16:46.928Z,6.60
2018-04-07T09:17:46.854Z,6.40
2018-04-07T09:18:46.782Z,5.90
2018-04-07T09:19:46.710Z,5.80
2018-04-07T09:20:46.637Z,6.00
2018-04-07T09:21:46.563Z,6.50
2018-04-07T09:22:46.493Z,6.70
2018-04-07T09:23:46.419Z,5.90
2018-04-07T09:24:46.346Z,5.80
2018-04-07T09:25:46.278Z,5.90
2018-04-07T09:26:46.200Z,6.20
2018-04-07T09:27:46.129Z,5.70
2018-04-07T09:28:46.057Z,5.70
2018-04-07T09:29:45.986Z,6.00
2018-04-07T09:30:45.914Z,6.00
2018-04-07T09:31:45.838Z,5.60
2018-04-07T09:32:45.766Z,5.90
2018-04-07T09:33:45.693Z,6.30
2018-04-07T09:34:45.620Z,6.30
2018-04-07T09:35:45.551Z,6.60
2018-04-07T09:36:45.476Z,6.60
2018-04-07T09:37:45.403Z,6.10
2018-04-07T09:38:45.331Z,6.00
2018-04-07T09:39:45.262Z,5.30
2018-04-07T09:40:45.187Z,5.70
2018-04-07T09:41:45.115Z,5.70
2018-04-07T09:42:45.042Z,5.80
2018-04-07T09:43:44.970Z,5.90
2018-04-07T09:44:44.898Z,6.10
2018-04-07T09:45:44.825Z,5.70
2018-04-07T09:46:44.754Z,5.80
2018-04-07T09:47:44.683Z,5.90
2018-04-07T09:48:44.610Z,6.40
2018-04-07T09:49:44.537Z,5.90
2018-04-07T09:50:44.467Z,5.90
2018-04-07T09:51:44.394Z,6.20
2018-04-07T09:52:44.322Z,6.00
2018-04-07T09:53:44.252Z,5.90
2018-04-07T09:54:44.184Z,5.90
2018-04-07T09:55:44.107Z,5.50
2018-04-07T09:56:44.036Z,6.50
2018-04-07T09:57:43.963Z,5.70
2018-04-07T09:58:43.896Z,5.70
2018-04-07T09:59:43.850Z,5.50
2018-04-07T10:00:43.749Z,6.00
2018-04-07T10:01:43.678Z,5.80
2018-04-07T10:02:43.605Z,5.70
2018-04-07T10:03:43.536Z,5.50
2018-04-07T10:04:43.464Z,5.60
2018-04-07T10:05:43.390Z,6.00
2018-04-07T10:06:43.319Z,6.00
2018-04-07T10:07:43.246Z,5.80
2018-04-07T10:08:43.176Z,5.60
2018-04-07T10:09:43.107Z,5.40
2018-04-07T10:10:43.033Z,5.90
2018-04-07T10:11:42.962Z,5.50
2018-04-07T10:12:42.890Z,5.60
2018-04-07T10:13:42.873Z,5.50
2018-04-07T10:14:42.748Z,6.00
2018-04-07T10:15:42.676Z,5.20
2018-04-07T10:16:42.606Z,5.20
2018-04-07T10:17:42.536Z,5.90
2018-04-07T10:18:42.463Z,5.40
2018-04-07T10:19:42.393Z,5.40
2018-04-07T10:20:42.322Z,5.40
2018-04-07T10:21:42.249Z,5.50
2018-04-07T10:22:42.179Z,5.80
2018-04-07T10:23:42.108Z,5.10
2018-04-07T10:24:42.038Z,5.80
2018-04-07T10:25:41.965Z,5.40
2018-04-07T10:26:41.895Z,5.10
2018-04-07T10:27:41.825Z,5.80
2018-04-07T10:28:41.752Z,5.00
2018-04-07T10:29:41.681Z,5.60
2018-04-07T10:30:41.612Z,4.90
2018-04-07T10:31:41.540Z,5.00
2018-04-07T10:32:41.471Z,5.30
2018-04-07T10:33:41.398Z,5.10
2018-04-07T10:34:41.328Z,5.40
2018-04-07T10:35:41.258Z,5.80
2018-04-07T10:36:41.188Z,5.40
2018-04-07T10:37:41.117Z,5.60
2018-04-07T10:38:41.054Z,5.40
2018-04-07T10:39:40.976Z,4.90
2018-04-07T10:40:40.906Z,5.20
2018-04-07T10:41:40.836Z,5.00
2018-04-07T10:42:40.766Z,4.80
2018-04-07T10:43:40.697Z,5.40
2018-04-07T10:44:40.635Z,5.00
2018-04-07T10:45:40.557Z,4.40
2018-04-07T10:46:40.489Z,5.30
2018-04-07T10:47:40.417Z,5.60
2018-04-07T10:48:40.347Z,5.30
2018-04-07T10:49:40.277Z,6.60
2018-04-07T10:50:40.210Z,5.80
2018-04-07T10:51:40.139Z,5.40
2018-04-07T10:52:40.152Z,8.50
2018-04-07T10:53:39.999Z,4.60
2018-04-07T10:54:39.931Z,5.10
2018-04-07T10:55:39.865Z,4.40
2018-04-07T10:56:39.794Z,4.40
2018-04-07T10:57:40.024Z,4.80
2018-04-07T10:58:39.656Z,4.60
2018-04-07T10:59:39.587Z,4.80
2018-04-07T11:00:39.524Z,4.90
2018-04-07T11:01:39.452Z,4.90
2018-04-07T11:02:39.384Z,5.10
2018-04-07T11:03:39.316Z,4.50
2018-04-07T11:04:39.257Z,5.00
2018-04-07T11:05:39.181Z,4.90
2018-04-07T11:06:39.115Z,4.90
2018-04-07T11:07:39.049Z,5.10
2018-04-07T11:08:38.980Z,4.50
2018-04-07T11:09:38.933Z,4.30
2018-04-07T11:10:38.848Z,4.40
2018-04-07T11:11:38.781Z,4.40
2018-04-07T11:12:38.717Z,4.70
2018-04-07T11:13:38.647Z,4.20
2018-04-07T11:14:38.584Z,4.60
2018-04-07T11:15:38.517Z,4.50
2018-04-07T11:16:38.452Z,4.70
2018-04-07T11:17:38.384Z,4.60
2018-04-07T11:18:38.323Z,5.20
2018-04-07T11:19:38.253Z,4.90
2018-04-07T11:20:38.187Z,5.00
2018-04-07T11:21:38.121Z,4.60
2018-04-07T11:22:38.058Z,4.60
2018-04-07T11:23:37.990Z,5.20
2018-04-07T11:24:37.924Z,4.40
2018-04-07T11:25:37.858Z,4.50
2018-04-07T11:26:37.792Z,4.60
2018-04-07T11:27:37.727Z,4.50
2018-04-07T11:28:37.662Z,4.30
2018-04-07T11:29:37.596Z,4.70
2018-04-07T11:30:37.531Z,4.30
2018-04-07T11:31:37.467Z,4.70
2018-04-07T11:32:37.447Z,4.30
2018-04-07T11:33:37.338Z,4.60
2018-04-07T11:34:37.279Z,4.40
2018-04-07T11:35:37.211Z,4.60
2018-04-07T11:36:37.149Z,4.40
2018-04-07T11:37:37.088Z,4.00
2018-04-07T11:38:37.024Z,4.20
2018-04-07T11:39:36.962Z,4.60
2018-04-07T11:40:36.901Z,4.40
2018-04-07T11:41:36.840Z,4.30
2018-04-07T11:42:36.779Z,4.20
2018-04-07T11:43:36.720Z,3.90
2018-04-07T11:44:36.658Z,4.00
2018-04-07T11:45:36.599Z,3.90
2018-04-07T11:46:36.539Z,3.90
2018-04-07T11:47:36.481Z,4.20
2018-04-07T11:48:36.423Z,3.60
2018-04-07T11:49:36.364Z,4.20
2018-04-07T11:50:36.304Z,4.60
2018-04-07T11:51:36.251Z,3.80
2018-04-07T11:52:36.191Z,3.70
2018-04-07T11:53:36.147Z,4.70
2018-04-07T11:54:36.097Z,4.00
2018-04-07T11:55:36.019Z,4.60
2018-04-07T11:56:35.963Z,3.80
2018-04-07T11:57:35.906Z,4.40
2018-04-07T11:58:35.851Z,4.00
2018-04-07T11:59:35.793Z,3.90
2018-04-07T12:00:35.738Z,4.00
2018-04-07T12:01:35.682Z,3.70
2018-04-07T12:02:35.698Z,3.90
2018-04-07T12:03:35.570Z,4.00
2018-04-07T12:04:35.514Z,3.90
2018-04-07T12:05:35.458Z,4.00
2018-04-07T12:06:35.404Z,3.90
2018-04-07T12:07:35.348Z,3.70
2018-04-07T12:08:35.293Z,3.60
2018-04-07T12:09:35.237Z,3.80
2018-04-07T12:10:35.183Z,3.70
2018-04-07T12:11:35.194Z,4.20
2018-04-07T12:12:35.074Z,4.00
2018-04-07T12:13:35.018Z,3.80
2018-04-07T12:14:34.967Z,3.40
2018-04-07T12:15:34.911Z,3.60
2018-04-07T12:16:34.856Z,3.70
2018-04-07T12:17:34.801Z,3.50
2018-04-07T12:18:34.747Z,3.90
2018-04-07T12:19:34.695Z,3.50
2018-04-07T12:20:34.639Z,4.10
2018-04-07T12:21:34.584Z,4.20
2018-04-07T12:22:34.529Z,3.70
2018-04-07T12:23:34.476Z,3.60
2018-04-07T12:24:34.423Z,3.30
2018-04-07T12:25:34.368Z,3.40
2018-04-07T12:26:34.314Z,3.50
2018-04-07T12:27:34.261Z,3.60
2018-04-07T12:28:34.208Z,3.60
2018-04-07T12:29:34.154Z,3.40
2018-04-07T12:30:34.100Z,3.60
2018-04-07T12:31:34.051Z,3.60
2018-04-07T12:32:33.993Z,3.50
2018-04-07T12:33:33.938Z,3.60
2018-04-07T12:34:33.887Z,3.30
2018-04-07T12:35:33.831Z,3.60
2018-04-07T12:36:33.782Z,3.70
2018-04-07T12:37:33.725Z,3.80
2018-04-07T12:38:33.670Z,3.40
2018-04-07T12:39:33.617Z,3.40
2018-04-07T12:40:33.563Z,3.50
2018-04-07T12:41:33.660Z,3.80
2018-04-07T12:42:33.457Z,3.70
2018-04-07T12:43:33.404Z,3.40
2018-04-07T12:44:33.351Z,3.50
2018-04-07T12:45:33.297Z,3.70
2018-04-07T12:46:33.244Z,3.30
2018-04-07T12:47:33.192Z,3.40
2018-04-07T12:48:33.139Z,3.10
2018-04-07T12:49:33.085Z,3.50
2018-04-07T12:50:33.036Z,3.10
2018-04-07T12:51:32.983Z,3.40
2018-04-07T12:52:32.928Z,3.00
2018-04-07T12:53:32.875Z,3.70
2018-04-07T12:54:32.823Z,3.40
2018-04-07T12:55:32.773Z,3.30
2018-04-07T12:56:32.718Z,3.40
2018-04-07T12:57:32.664Z,3.30
2018-04-07T12:58:32.622Z,3.50
2018-04-07T12:59:32.560Z,3.70
2018-04-07T13:00:32.508Z,3.20
2018-04-07T13:01:32.455Z,3.30
2018-04-07T13:02:32.402Z,3.40
2018-04-07T13:03:32.351Z,3.30
2018-04-07T13:04:32.305Z,3.40
2018-04-07T13:05:32.245Z,3.60
2018-04-07T13:06:32.193Z,2.80
2018-04-07T13:07:32.141Z,3.50
2018-04-07T13:08:32.089Z,3.40
2018-04-07T13:09:32.034Z,3.50
2018-04-07T13:10:31.983Z,3.40
2018-04-07T13:11:31.932Z,3.40
2018-04-07T13:12:31.882Z,3.20
2018-04-07T13:13:31.827Z,3.20
2018-04-07T13:14:31.775Z,3.00
2018-04-07T13:15:31.725Z,3.10
2018-04-07T13:16:31.672Z,2.70
2018-04-07T13:17:31.619Z,3.00